createdAt,value
2019-03-12T00:00:24.399Z,42.78
2019-03-12T00:02:53.813Z,37.85
2019-03-12T00:05:23.271Z,41.88
2019-03-12T00:07:52.713Z,38.02
2019-03-12T00:10:22.156Z,40.48
2019-03-12T00:12:51.554Z,40.38
2019-03-12T00:15:21.027Z,41.25
2019-03-12T00:17:50.458Z,42.40
2019-03-12T00:20:19.995Z,41.47
2019-03-12T00:22:49.450Z,35.68
2019-03-12T00:25:18.903Z,44.45
2019-03-12T00:27:48.317Z,42.83
2019-03-12T00:30:18.706Z,45.15
2019-03-12T00:32:48.138Z,45.17
2019-03-12T00:35:17.553Z,41.95
2019-03-12T00:37:46.994Z,43.00
2019-03-12T00:40:16.413Z,44.27
2019-03-12T00:42:45.830Z,42.58
2019-03-12T00:45:15.316Z,42.33
2019-03-12T00:47:44.704Z,46.18
2019-03-12T00:50:14.093Z,40.83
2019-03-12T00:52:43.506Z,42.35
2019-03-12T00:55:13.044Z,45.83
2019-03-12T00:57:42.472Z,45.65
2019-03-12T01:00:13.964Z,46.55
2019-03-12T01:02:43.417Z,47.78
2019-03-12T01:05:12.940Z,46.97
2019-03-12T01:07:42.654Z,43.45
2019-03-12T01:10:13.412Z,44.63
2019-03-12T01:12:42.900Z,41.92
2019-03-12T01:15:13.318Z,44.13
2019-03-12T01:17:42.857Z,42.93
2019-03-12T01:20:12.952Z,46.35
2019-03-12T01:22:42.416Z,46.77
2019-03-12T01:25:11.915Z,45.00
2019-03-12T01:27:41.378Z,42.78
2019-03-12T01:30:13.012Z,45.17
2019-03-12T01:32:42.433Z,49.00
2019-03-12T01:35:12.013Z,43.38
2019-03-12T01:37:41.466Z,40.40
2019-03-12T01:40:11.985Z,38.50
2019-03-12T01:42:41.392Z,37.47
2019-03-12T01:45:13.286Z,40.55
2019-03-12T01:47:42.710Z,35.43
2019-03-12T01:50:12.295Z,36.45
2019-03-12T01:52:41.744Z,35.28
2019-03-12T01:55:11.671Z,42.10
2019-03-12T01:57:41.118Z,39.83
2019-03-12T02:00:12.751Z,38.35
2019-03-12T02:02:42.206Z,34.20
2019-03-12T02:05:11.708Z,35.73
2019-03-12T02:07:41.147Z,36.50
2019-03-12T02:10:11.453Z,39.25
2019-03-12T02:12:40.954Z,35.52
2019-03-12T02:15:11.381Z,43.30
2019-03-12T02:17:40.813Z,37.67
2019-03-12T02:20:14.957Z,37.55
2019-03-12T02:22:44.388Z,34.43
2019-03-12T02:25:15.841Z,38.17
2019-03-12T02:27:45.238Z,35.03
2019-03-12T02:30:16.661Z,33.25
2019-03-12T02:32:46.183Z,35.85
2019-03-12T02:35:15.915Z,37.00
2019-03-12T02:37:45.346Z,35.17
2019-03-12T02:40:15.546Z,34.23
2019-03-12T02:42:44.985Z,39.92
2019-03-12T02:45:14.514Z,33.57
2019-03-12T02:47:44.017Z,36.90
2019-03-12T02:50:13.894Z,34.58
2019-03-12T02:52:43.589Z,38.30
2019-03-12T02:55:13.062Z,35.88
2019-03-12T02:57:42.486Z,36.53
2019-03-12T03:00:16.494Z,35.03
2019-03-12T03:02:45.835Z,39.42
2019-03-12T03:05:15.280Z,38.75
2019-03-12T03:07:55.515Z,36.53
2019-03-12T03:10:24.926Z,35.55
2019-03-12T03:12:54.374Z,38.77
2019-03-12T03:15:25.974Z,35.85
2019-03-12T03:17:55.465Z,38.15
2019-03-12T03:20:25.087Z,38.17
2019-03-12T03:22:54.506Z,36.53
2019-03-12T03:25:23.942Z,35.60
2019-03-12T03:27:53.376Z,41.15
2019-03-12T03:30:23.927Z,39.35
2019-03-12T03:32:53.621Z,40.35
2019-03-12T03:35:23.066Z,37.35
2019-03-12T03:37:52.485Z,36.30
2019-03-12T03:40:22.169Z,33.45
2019-03-12T03:42:51.983Z,34.30
2019-03-12T03:45:21.403Z,33.53
2019-03-12T03:47:50.811Z,34.92
2019-03-12T03:50:20.250Z,31.77
2019-03-12T03:52:49.685Z,32.40
2019-03-12T03:55:19.161Z,33.48
2019-03-12T03:57:48.788Z,33.95
2019-03-12T04:00:20.468Z,30.95
2019-03-12T04:02:50.057Z,32.85
2019-03-12T04:05:19.680Z,32.90
2019-03-12T04:07:49.115Z,28.67
2019-03-12T04:10:18.532Z,31.13
2019-03-12T04:12:47.965Z,29.00
2019-03-12T04:15:17.807Z,32.17
2019-03-12T04:17:47.606Z,33.85
2019-03-12T04:20:17.103Z,29.42
2019-03-12T04:22:46.682Z,34.25
2019-03-12T04:25:16.080Z,32.30
2019-03-12T04:27:45.496Z,34.30
2019-03-12T04:30:15.110Z,30.45
2019-03-12T04:32:44.530Z,29.85
2019-03-12T04:35:15.666Z,33.45
2019-03-12T04:37:45.111Z,31.25
2019-03-12T04:40:14.812Z,30.67
2019-03-12T04:42:44.250Z,34.20
2019-03-12T04:45:15.044Z,27.27
2019-03-12T04:47:44.505Z,30.27
2019-03-12T04:50:14.613Z,30.90
2019-03-12T04:52:44.044Z,28.52
2019-03-12T04:55:13.720Z,30.17
2019-03-12T04:57:43.142Z,31.00
2019-03-12T05:00:15.177Z,30.85
2019-03-12T05:02:44.612Z,31.37
2019-03-12T05:05:14.348Z,33.42
2019-03-12T05:07:43.763Z,25.95
2019-03-12T05:10:13.988Z,34.73
2019-03-12T05:12:43.380Z,31.60
2019-03-12T05:15:13.429Z,29.07
2019-03-12T05:17:43.281Z,32.25
2019-03-12T05:20:13.709Z,38.67
2019-03-12T05:22:43.244Z,31.82
2019-03-12T05:25:13.156Z,27.27
2019-03-12T05:27:42.558Z,28.12
2019-03-12T05:30:14.910Z,24.77
2019-03-12T05:32:44.312Z,28.57
2019-03-12T05:35:13.835Z,27.07
2019-03-12T05:37:43.885Z,30.27
2019-03-12T05:40:14.005Z,29.85
2019-03-12T05:42:43.464Z,28.77
2019-03-12T05:45:13.101Z,27.45
2019-03-12T05:47:42.539Z,29.18
2019-03-12T05:50:13.612Z,32.95
2019-03-12T05:52:43.078Z,28.38
2019-03-12T05:55:12.858Z,31.12
2019-03-12T05:57:42.303Z,28.67
2019-03-12T06:00:14.003Z,31.33
2019-03-12T06:02:43.498Z,27.37
2019-03-12T06:05:12.904Z,28.07
2019-03-12T06:07:42.246Z,25.60
2019-03-12T06:10:12.008Z,28.90
2019-03-12T06:12:41.407Z,26.10
2019-03-12T06:15:10.908Z,28.25
2019-03-12T06:17:40.416Z,25.70
2019-03-12T06:20:10.244Z,25.50
2019-03-12T06:22:39.733Z,33.88
2019-03-12T06:25:09.394Z,25.95
2019-03-12T06:27:38.816Z,28.55
2019-03-12T06:30:09.740Z,28.07
2019-03-12T06:32:58.231Z,28.40
2019-03-12T06:35:38.578Z,27.85
2019-03-12T06:38:17.833Z,27.37
2019-03-12T06:41:01.414Z,27.22
2019-03-12T06:44:04.966Z,24.18
2019-03-12T06:46:46.441Z,25.23
2019-03-12T06:49:34.266Z,25.15
2019-03-12T06:52:22.974Z,26.07
2019-03-12T06:55:17.545Z,28.38
2019-03-12T06:58:18.308Z,28.15
2019-03-12T07:01:08.110Z,22.70
2019-03-12T07:03:46.766Z,25.15
2019-03-12T07:06:40.993Z,21.80
2019-03-12T07:09:25.029Z,25.63
2019-03-12T07:11:58.924Z,24.63
2019-03-12T07:14:50.298Z,20.43
2019-03-12T07:17:37.524Z,21.97
2019-03-12T07:20:26.050Z,21.15
2019-03-12T07:23:26.693Z,17.67
2019-03-12T07:26:30.564Z,18.40
2019-03-12T07:29:17.462Z,18.27
2019-03-12T07:31:56.898Z,22.70
2019-03-12T07:34:36.994Z,17.87
2019-03-12T07:37:18.715Z,18.00
2019-03-12T07:40:03.175Z,17.92
2019-03-12T07:42:47.737Z,14.70
2019-03-12T07:45:42.358Z,15.85
2019-03-12T07:48:25.687Z,14.35
2019-03-12T07:51:20.238Z,14.07
2019-03-12T07:54:11.392Z,14.97
2019-03-12T07:56:59.900Z,11.88
2019-03-12T07:59:57.689Z,13.40
2019-03-12T08:02:39.155Z,11.55
2019-03-12T08:05:28.058Z,10.25
2019-03-12T08:08:05.903Z,12.93
2019-03-12T08:11:09.431Z,11.10
2019-03-12T08:13:57.843Z,16.65
2019-03-12T08:16:52.101Z,9.88
2019-03-12T08:19:55.937Z,9.73
2019-03-12T08:22:37.457Z,9.40
2019-03-12T08:25:44.881Z,8.63
2019-03-12T08:28:36.102Z,7.97
2019-03-12T08:31:22.437Z,6.28
2019-03-12T08:34:01.791Z,9.43
2019-03-12T08:36:52.995Z,8.38
2019-03-12T08:39:44.287Z,7.90
2019-03-12T08:42:29.130Z,8.63
2019-03-12T08:45:17.520Z,6.97
2019-03-12T08:48:15.021Z,6.62
2019-03-12T08:51:06.415Z,6.83
2019-03-12T08:53:58.631Z,6.78
2019-03-12T08:56:45.073Z,5.72
2019-03-12T08:59:39.329Z,7.42
2019-03-12T09:02:30.808Z,9.28
2019-03-12T09:05:19.463Z,8.08
2019-03-12T09:07:56.107Z,6.70
2019-03-12T09:10:41.802Z,6.90
2019-03-12T09:13:28.605Z,8.97
2019-03-12T09:16:23.109Z,7.83
2019-03-12T09:19:26.791Z,7.67
2019-03-12T09:22:17.906Z,8.08
2019-03-12T09:25:07.333Z,6.83
2019-03-12T09:28:16.094Z,6.80
2019-03-12T09:31:07.734Z,5.80
2019-03-12T09:34:11.218Z,5.58
2019-03-12T09:36:58.403Z,6.77
2019-03-12T09:39:53.158Z,5.83
2019-03-12T09:42:40.633Z,7.25
2019-03-12T09:45:28.012Z,7.20
2019-03-12T09:48:22.418Z,8.38
2019-03-12T09:51:16.195Z,6.83
2019-03-12T09:53:52.341Z,5.10
2019-03-12T09:56:46.234Z,5.53
2019-03-12T09:59:34.593Z,6.95
2019-03-12T10:02:28.974Z,6.33
2019-03-12T10:05:23.672Z,7.42
2019-03-12T10:08:21.445Z,5.25
2019-03-12T10:11:06.459Z,6.78
2019-03-12T10:14:07.008Z,5.72
2019-03-12T10:17:03.327Z,5.30
2019-03-12T10:19:51.693Z,7.47
2019-03-12T10:22:38.746Z,7.33
2019-03-12T10:25:43.054Z,6.20
2019-03-12T10:28:21.260Z,5.93
2019-03-12T10:31:18.594Z,6.87
2019-03-12T10:34:09.464Z,5.62
2019-03-12T10:36:55.980Z,6.10
2019-03-12T10:40:01.915Z,5.70
2019-03-12T10:42:41.140Z,6.05
2019-03-12T10:45:38.949Z,5.60
2019-03-12T10:48:08.437Z,5.12
2019-03-12T10:50:38.071Z,4.50
2019-03-12T10:53:07.621Z,4.85
2019-03-12T10:55:37.080Z,4.70
2019-03-12T10:58:06.798Z,4.95
2019-03-12T11:00:36.683Z,6.97
2019-03-12T11:03:06.153Z,8.38
2019-03-12T11:05:45.248Z,5.70
2019-03-12T11:08:07.068Z,4.35
2019-03-12T11:10:36.722Z,3.33
2019-03-12T11:13:06.220Z,3.77
2019-03-12T11:15:35.943Z,3.77
2019-03-12T11:18:05.374Z,2.57
2019-03-12T11:20:34.178Z,4.97
2019-03-12T11:23:03.715Z,6.67
2019-03-12T11:25:33.101Z,5.43
2019-03-12T11:28:02.850Z,5.53
2019-03-12T11:30:32.339Z,4.53
2019-03-12T11:33:01.764Z,5.28
2019-03-12T11:35:38.687Z,4.67
2019-03-12T11:38:02.374Z,6.97
2019-03-12T11:40:32.912Z,7.58
2019-03-12T11:43:02.678Z,3.40
2019-03-12T11:45:36.667Z,4.12
2019-03-12T11:48:03.242Z,5.70
2019-03-12T11:50:32.036Z,8.30
2019-03-12T11:53:01.639Z,4.60
2019-03-12T11:55:30.607Z,5.60
2019-03-12T11:57:59.592Z,5.33
2019-03-12T12:00:37.099Z,4.25
2019-03-12T12:03:06.495Z,7.37
2019-03-12T12:05:36.279Z,10.18
2019-03-12T12:08:05.170Z,4.35
2019-03-12T12:10:34.598Z,4.50
2019-03-12T12:13:03.556Z,4.95
2019-03-12T12:15:32.429Z,5.00
2019-03-12T12:18:02.002Z,4.70
2019-03-12T12:20:30.847Z,4.65
2019-03-12T12:23:00.574Z,5.37
2019-03-12T12:25:29.999Z,4.33
2019-03-12T12:27:59.198Z,4.97
2019-03-12T12:30:28.612Z,5.13
2019-03-12T12:32:57.496Z,3.75
2019-03-12T12:35:26.939Z,5.42
2019-03-12T12:37:56.443Z,2.87
2019-03-12T12:40:26.223Z,4.65
2019-03-12T12:42:55.641Z,4.35
2019-03-12T12:45:24.833Z,4.70
2019-03-12T12:47:54.232Z,4.62
2019-03-12T12:50:23.108Z,4.92
2019-03-12T12:52:52.138Z,5.22
2019-03-12T12:55:21.574Z,4.80
2019-03-12T12:57:51.008Z,4.80
2019-03-12T13:00:19.900Z,4.60
2019-03-12T13:02:49.434Z,3.65
2019-03-12T13:05:18.860Z,3.10
2019-03-12T13:07:48.372Z,3.40
2019-03-12T13:10:26.512Z,2.22
2019-03-12T13:12:55.870Z,5.03
2019-03-12T13:15:25.391Z,5.12
2019-03-12T13:17:55.020Z,4.70
2019-03-12T13:20:24.485Z,4.15
2019-03-12T13:22:53.520Z,6.08
2019-03-12T13:25:22.681Z,4.33
2019-03-12T13:27:52.066Z,4.10
2019-03-12T13:30:21.700Z,2.85
2019-03-12T13:32:50.669Z,4.55
2019-03-12T13:35:19.644Z,4.08
2019-03-12T13:37:48.758Z,5.63
2019-03-12T13:40:18.159Z,3.40
2019-03-12T13:42:46.978Z,4.70
2019-03-12T13:45:16.489Z,3.97
2019-03-12T13:47:45.617Z,3.98
2019-03-12T13:50:14.845Z,4.28
2019-03-12T13:52:43.642Z,4.47
2019-03-12T13:55:12.551Z,3.85
2019-03-12T13:57:42.094Z,6.37
2019-03-12T14:00:14.973Z,3.87
2019-03-12T14:02:45.216Z,6.80
2019-03-12T14:05:14.525Z,3.08
2019-03-12T14:07:43.416Z,4.35
2019-03-12T14:10:16.562Z,4.45
2019-03-12T14:12:45.454Z,4.53
2019-03-12T14:15:16.497Z,3.95
2019-03-12T14:17:45.997Z,3.15
2019-03-12T14:20:33.116Z,5.47
2019-03-12T14:23:02.042Z,4.30
2019-03-12T14:25:30.874Z,4.00
2019-03-12T14:28:00.301Z,4.72
2019-03-12T14:30:29.329Z,6.28
2019-03-12T14:32:58.215Z,7.03
2019-03-12T14:35:27.083Z,7.42
2019-03-12T14:37:56.609Z,4.35
2019-03-12T14:40:26.126Z,4.65
2019-03-12T14:42:55.489Z,3.60
2019-03-12T14:45:26.959Z,6.05
2019-03-12T14:47:56.565Z,7.92
2019-03-12T14:50:26.289Z,5.05
2019-03-12T14:53:02.554Z,7.00
2019-03-12T14:55:32.003Z,6.42
2019-03-12T14:58:01.443Z,7.00
2019-03-12T15:00:30.911Z,13.80
2019-03-12T15:03:00.471Z,6.83
2019-03-12T15:05:30.040Z,7.95
2019-03-12T15:07:59.785Z,5.50
2019-03-12T15:10:29.181Z,7.67
2019-03-12T15:12:58.629Z,7.60
2019-03-12T15:15:28.179Z,14.05
2019-03-12T15:17:57.541Z,6.12
2019-03-12T15:20:27.000Z,4.90
2019-03-12T15:22:56.389Z,6.08
2019-03-12T15:25:25.904Z,7.60
2019-03-12T15:27:55.326Z,5.25
2019-03-12T15:30:24.813Z,4.90
2019-03-12T15:32:54.259Z,6.22
2019-03-12T15:35:23.771Z,7.58
2019-03-12T15:37:53.612Z,7.03
2019-03-12T15:40:23.056Z,6.95
2019-03-12T15:42:52.513Z,8.88
2019-03-12T15:45:22.102Z,12.13
2019-03-12T15:47:51.533Z,14.38
2019-03-12T15:50:21.210Z,20.72
2019-03-12T15:52:50.803Z,13.53
2019-03-12T15:55:20.190Z,13.10
2019-03-12T15:57:49.640Z,12.35
2019-03-12T16:00:19.041Z,12.67
2019-03-12T16:02:48.621Z,15.45
2019-03-12T16:05:18.038Z,13.85
2019-03-12T16:07:47.459Z,16.60
2019-03-12T16:10:19.246Z,16.77
2019-03-12T16:12:47.949Z,18.02
2019-03-12T16:15:17.319Z,20.25
2019-03-12T16:17:46.740Z,18.57
2019-03-12T16:20:16.257Z,18.35
2019-03-12T16:22:45.642Z,17.07
2019-03-12T16:25:15.035Z,18.62
2019-03-12T16:27:44.445Z,19.87
2019-03-12T16:30:13.870Z,18.95
2019-03-12T16:32:43.284Z,20.90
2019-03-12T16:35:12.717Z,22.27
2019-03-12T16:37:42.150Z,25.00
2019-03-12T16:40:11.944Z,23.83
2019-03-12T16:42:41.443Z,24.55
2019-03-12T16:45:10.969Z,21.73
2019-03-12T16:47:40.551Z,22.25
2019-03-12T16:50:10.020Z,22.32
2019-03-12T16:52:39.476Z,22.27
2019-03-12T16:55:09.009Z,23.25
2019-03-12T16:57:38.446Z,22.87
2019-03-12T17:00:10.514Z,24.17
2019-03-12T17:02:39.970Z,20.62
2019-03-12T17:05:09.685Z,24.73
2019-03-12T17:07:39.257Z,24.43
2019-03-12T17:10:09.499Z,25.48
2019-03-12T17:12:38.957Z,25.17
2019-03-12T17:15:10.338Z,23.60
2019-03-12T17:17:39.809Z,24.52
2019-03-12T17:20:10.875Z,26.97
2019-03-12T17:22:40.313Z,23.90
2019-03-12T17:25:10.406Z,22.30
2019-03-12T17:27:40.739Z,23.85
2019-03-12T17:30:13.373Z,24.45
2019-03-12T17:32:43.051Z,20.27
2019-03-12T17:35:13.803Z,23.50
2019-03-12T17:37:43.444Z,24.27
2019-03-12T17:40:15.623Z,23.20
2019-03-12T17:42:45.159Z,25.23
2019-03-12T17:45:14.825Z,27.13
2019-03-12T17:47:44.237Z,23.27
2019-03-12T17:50:13.941Z,24.98
2019-03-12T17:52:43.382Z,27.20
2019-03-12T17:55:13.120Z,22.90
2019-03-12T17:57:42.587Z,28.42
2019-03-12T18:00:15.669Z,26.17
2019-03-12T18:02:45.082Z,29.90
2019-03-12T18:05:14.598Z,26.80
2019-03-12T18:07:44.151Z,29.80
2019-03-12T18:10:14.367Z,31.17
2019-03-12T18:12:43.811Z,31.85
2019-03-12T18:15:15.055Z,30.45
2019-03-12T18:17:44.827Z,31.37
2019-03-12T18:20:14.892Z,31.40
2019-03-12T18:22:44.349Z,30.23
2019-03-12T18:25:17.223Z,30.50
2019-03-12T18:27:46.671Z,24.13
2019-03-12T18:30:17.015Z,26.05
2019-03-12T18:32:46.627Z,44.90
2019-03-12T18:35:17.600Z,26.80
2019-03-12T18:37:47.430Z,28.15
2019-03-12T18:40:18.464Z,24.12
2019-03-12T18:42:48.071Z,27.50
2019-03-12T18:45:19.847Z,30.10
2019-03-12T18:47:49.288Z,24.95
2019-03-12T18:50:18.814Z,28.67
2019-03-12T18:52:48.399Z,29.67
2019-03-12T18:55:44.076Z,32.00
2019-03-12T18:58:13.454Z,32.93
2019-03-12T19:00:43.850Z,33.55
2019-03-12T19:03:13.763Z,33.23
2019-03-12T19:05:43.194Z,33.10
2019-03-12T19:08:12.773Z,34.73
2019-03-12T19:10:42.261Z,33.60
2019-03-12T19:13:11.858Z,36.68
2019-03-12T19:15:41.724Z,30.67
2019-03-12T19:18:11.155Z,28.97
2019-03-12T19:20:40.664Z,27.45
2019-03-12T19:23:10.158Z,29.27
2019-03-12T19:25:39.656Z,26.40
2019-03-12T19:28:09.273Z,29.92
2019-03-12T19:30:38.845Z,33.28
2019-03-12T19:33:10.487Z,31.68
2019-03-12T19:35:40.394Z,33.58
2019-03-12T19:38:10.494Z,32.80
2019-03-12T19:40:41.495Z,39.73
2019-03-12T19:43:11.306Z,53.77
2019-03-12T19:45:41.322Z,51.50
2019-03-12T19:48:10.828Z,36.20
2019-03-12T19:50:40.455Z,33.35
2019-03-12T19:53:09.900Z,31.85
2019-03-12T19:55:42.537Z,33.38
2019-03-12T19:58:12.080Z,29.23
2019-03-12T20:00:41.613Z,34.30
2019-03-12T20:03:15.139Z,46.08
2019-03-12T20:05:43.471Z,50.90
2019-03-12T20:08:12.937Z,95.93
2019-03-12T20:11:24.962Z,216.00
2019-03-12T20:14:30.223Z,52.03
2019-03-12T20:18:02.168Z,94.07
2019-03-12T20:21:18.765Z,156.22
2019-03-12T20:24:37.396Z,77.03
2019-03-12T20:27:54.066Z,64.62
2019-03-12T20:30:49.468Z,70.08
2019-03-12T20:34:08.971Z,69.03
2019-03-12T20:37:22.034Z,70.12
2019-03-12T20:40:31.589Z,122.85
2019-03-12T20:43:38.135Z,80.15
2019-03-12T20:46:53.882Z,75.90
2019-03-12T20:49:52.574Z,126.40
2019-03-12T20:53:06.165Z,222.80
2019-03-12T20:56:47.088Z,231.55
2019-03-12T20:59:52.421Z,129.38
2019-03-12T21:03:13.433Z,114.37
2019-03-12T21:06:21.669Z,113.60
2019-03-12T21:09:40.314Z,124.90
2019-03-12T21:12:51.526Z,174.68
2019-03-12T21:15:57.116Z,157.75
2019-03-12T21:19:12.358Z,89.47
2019-03-12T21:22:06.125Z,136.87
2019-03-12T21:25:34.389Z,98.75
2019-03-12T21:28:40.048Z,229.03
2019-03-12T21:31:09.801Z,126.55
2019-03-12T21:33:39.223Z,124.87
2019-03-12T21:36:08.663Z,145.62
2019-03-12T21:38:38.423Z,126.20
2019-03-12T21:41:07.899Z,129.75
2019-03-12T21:43:37.370Z,134.25
2019-03-12T21:46:07.077Z,124.90
2019-03-12T21:48:36.517Z,110.68
2019-03-12T21:51:06.331Z,102.25
2019-03-12T21:53:35.793Z,106.45
2019-03-12T21:56:05.517Z,120.95
2019-03-12T21:58:35.147Z,116.13
2019-03-12T22:01:04.599Z,102.80
2019-03-12T22:03:34.024Z,125.95
2019-03-12T22:06:03.756Z,124.90
2019-03-12T22:08:33.195Z,129.32
2019-03-12T22:11:02.666Z,149.07
2019-03-12T22:13:32.536Z,142.45
2019-03-12T22:16:01.995Z,141.00
2019-03-12T22:18:31.428Z,136.12
2019-03-12T22:21:01.072Z,118.33
2019-03-12T22:23:35.891Z,119.45
2019-03-12T22:26:05.367Z,117.45
2019-03-12T22:28:34.836Z,115.10
2019-03-12T22:31:04.260Z,105.22
2019-03-12T22:33:34.079Z,102.55
2019-03-12T22:36:03.553Z,103.07
2019-03-12T22:38:33.183Z,100.12
2019-03-12T22:41:02.633Z,98.97
2019-03-12T22:43:32.083Z,97.17
2019-03-12T22:46:01.601Z,99.37
2019-03-12T22:48:31.208Z,95.77
2019-03-12T22:51:00.653Z,99.85
2019-03-12T22:53:30.111Z,94.22
2019-03-12T22:55:59.814Z,100.42
2019-03-12T22:58:29.271Z,105.12
2019-03-12T23:00:58.704Z,108.57
2019-03-12T23:03:28.655Z,114.55
2019-03-12T23:05:58.172Z,107.27
2019-03-12T23:08:28.142Z,111.08
2019-03-12T23:10:57.633Z,107.22
2019-03-12T23:13:27.452Z,98.67
2019-03-12T23:15:56.973Z,105.60
2019-03-12T23:18:26.554Z,106.27
2019-03-12T23:20:56.133Z,109.10
2019-03-12T23:23:25.575Z,102.97
2019-03-12T23:25:55.084Z,97.10
2019-03-12T23:28:24.647Z,101.10
2019-03-12T23:30:54.315Z,101.80
2019-03-12T23:33:24.361Z,100.27
2019-03-12T23:35:54.003Z,104.32
2019-03-12T23:38:23.527Z,91.30
2019-03-12T23:40:52.963Z,98.52
2019-03-12T23:43:22.462Z,101.05
2019-03-12T23:45:52.429Z,98.70
2019-03-12T23:48:22.345Z,99.40
2019-03-12T23:50:51.770Z,88.97
2019-03-12T23:53:21.256Z,99.30
2019-03-12T23:55:50.935Z,95.53
2019-03-12T23:58:20.433Z,94.45
